createdAt,value
2018-05-14T00:00:50.037Z,1006.51
2018-05-14T00:01:49.936Z,1006.50
2018-05-14T00:02:49.950Z,1006.45
2018-05-14T00:03:50.047Z,1006.44
2018-05-14T00:04:49.985Z,1006.42
2018-05-14T00:05:50.000Z,1006.40
2018-05-14T00:06:50.021Z,1006.37
2018-05-14T00:07:50.039Z,1006.38
2018-05-14T00:08:50.055Z,1006.34
2018-05-14T00:09:50.070Z,1006.39
2018-05-14T00:10:50.085Z,1006.37
2018-05-14T00:11:50.101Z,1006.43
2018-05-14T00:12:50.119Z,1006.39
2018-05-14T00:13:50.138Z,1006.41
2018-05-14T00:14:50.151Z,1006.41
2018-05-14T00:15:50.167Z,1006.39
2018-05-14T00:16:50.190Z,1006.42
2018-05-14T00:17:50.202Z,1006.40
2018-05-14T00:18:50.216Z,1006.39
2018-05-14T00:19:50.234Z,1006.38
2018-05-14T00:20:50.251Z,1006.40
2018-05-14T00:21:50.266Z,1006.40
2018-05-14T00:22:50.286Z,1006.42
2018-05-14T00:23:50.304Z,1006.39
2018-05-14T00:24:50.318Z,1006.37
2018-05-14T00:25:50.337Z,1006.36
2018-05-14T00:26:50.350Z,1006.39
2018-05-14T00:27:50.369Z,1006.38
2018-05-14T00:28:50.383Z,1006.37
2018-05-14T00:29:50.400Z,1006.33
2018-05-14T00:30:50.420Z,1006.33
2018-05-14T00:31:50.755Z,1006.31
2018-05-14T00:32:50.470Z,1006.31
2018-05-14T00:33:50.467Z,1006.29
2018-05-14T00:34:50.488Z,1006.22
2018-05-14T00:35:50.502Z,1006.16
2018-05-14T00:36:50.587Z,1006.17
2018-05-14T00:37:50.534Z,1006.13
2018-05-14T00:38:50.551Z,1006.07
2018-05-14T00:39:50.569Z,1006.09
2018-05-14T00:40:50.620Z,1006.05
2018-05-14T00:41:50.600Z,1006.05
2018-05-14T00:42:50.628Z,1006.07
2018-05-14T00:43:50.635Z,1006.10
2018-05-14T00:44:50.651Z,1006.12
2018-05-14T00:45:50.668Z,1006.07
2018-05-14T00:46:50.688Z,1006.05
2018-05-14T00:47:50.702Z,1006.07
2018-05-14T00:48:50.716Z,1006.06
2018-05-14T00:49:50.734Z,1006.06
2018-05-14T00:50:50.751Z,1006.04
2018-05-14T00:51:50.771Z,1006.06
2018-05-14T00:52:50.787Z,1006.08
2018-05-14T00:53:50.800Z,1006.06
2018-05-14T00:54:50.820Z,1006.08
2018-05-14T00:55:50.835Z,1006.01
2018-05-14T00:56:50.850Z,1006.04
2018-05-14T00:57:50.868Z,1006.00
2018-05-14T00:58:50.881Z,1006.00
2018-05-14T00:59:50.899Z,1005.99
2018-05-14T01:00:50.920Z,1006.01
2018-05-14T01:01:50.934Z,1005.99
2018-05-14T01:02:50.952Z,1005.97
2018-05-14T01:03:50.965Z,1005.94
2018-05-14T01:04:50.984Z,1005.97
2018-05-14T01:05:51.001Z,1005.93
2018-05-14T01:06:51.051Z,1005.94
2018-05-14T01:07:51.046Z,1005.91
2018-05-14T01:08:51.119Z,1005.97
2018-05-14T01:09:51.065Z,1005.92
2018-05-14T01:10:51.083Z,1005.88
2018-05-14T01:11:51.100Z,1005.88
2018-05-14T01:12:51.123Z,1005.86
2018-05-14T01:13:51.133Z,1005.87
2018-05-14T01:14:51.149Z,1005.80
2018-05-14T01:15:51.191Z,1005.85
2018-05-14T01:16:51.184Z,1005.86
2018-05-14T01:17:51.204Z,1005.86
2018-05-14T01:18:51.217Z,1005.86
2018-05-14T01:19:51.237Z,1005.82
2018-05-14T01:20:51.248Z,1005.86
2018-05-14T01:21:51.266Z,1005.86
2018-05-14T01:22:51.283Z,1005.89
2018-05-14T01:23:51.299Z,1005.89
2018-05-14T01:24:51.321Z,1005.91
2018-05-14T01:25:51.336Z,1005.89
2018-05-14T01:26:51.348Z,1005.91
2018-05-14T01:27:51.364Z,1005.89
2018-05-14T01:28:51.381Z,1005.87
2018-05-14T01:29:51.396Z,1005.89
2018-05-14T01:30:51.413Z,1005.89
2018-05-14T01:31:51.430Z,1005.87
2018-05-14T01:32:51.448Z,1005.87
2018-05-14T01:33:51.464Z,1005.85
2018-05-14T01:34:51.480Z,1005.84
2018-05-14T01:35:51.501Z,1005.83
2018-05-14T01:36:51.513Z,1005.88
2018-05-14T01:37:51.531Z,1005.88
2018-05-14T01:38:51.545Z,1005.87
2018-05-14T01:39:51.600Z,1005.87
2018-05-14T01:40:51.585Z,1005.87
2018-05-14T01:41:51.598Z,1005.84
2018-05-14T01:42:51.615Z,1005.85
2018-05-14T01:43:51.636Z,1005.83
2018-05-14T01:44:51.646Z,1005.88
2018-05-14T01:45:51.662Z,1005.87
2018-05-14T01:46:51.751Z,1005.93
2018-05-14T01:47:51.696Z,1005.92
2018-05-14T01:48:51.714Z,1005.91
2018-05-14T01:49:51.729Z,1005.92
2018-05-14T01:50:51.746Z,1005.90
2018-05-14T01:51:51.766Z,1005.92
2018-05-14T01:52:51.779Z,1005.96
2018-05-14T01:53:51.796Z,1005.94
2018-05-14T01:54:51.816Z,1005.95
2018-05-14T01:55:51.829Z,1005.95
2018-05-14T01:56:51.851Z,1005.95
2018-05-14T01:57:51.863Z,1005.97
2018-05-14T01:58:51.879Z,1005.96
2018-05-14T01:59:51.901Z,1005.98
2018-05-14T02:00:51.913Z,1005.99
2018-05-14T02:01:51.930Z,1005.94
2018-05-14T02:02:51.943Z,1005.97
2018-05-14T02:03:51.962Z,1005.94
2018-05-14T02:04:51.981Z,1005.91
2018-05-14T02:05:51.994Z,1005.93
2018-05-14T02:06:52.059Z,1005.93
2018-05-14T02:07:52.030Z,1005.91
2018-05-14T02:08:52.045Z,1005.95
2018-05-14T02:09:52.061Z,1005.94
2018-05-14T02:10:52.081Z,1005.96
2018-05-14T02:11:52.095Z,1005.92
2018-05-14T02:12:52.118Z,1005.95
2018-05-14T02:13:52.133Z,1005.97
2018-05-14T02:14:52.157Z,1005.98
2018-05-14T02:15:52.166Z,1005.91
2018-05-14T02:16:52.188Z,1005.95
2018-05-14T02:17:52.194Z,1005.98
2018-05-14T02:18:52.213Z,1005.91
2018-05-14T02:19:52.228Z,1005.94
2018-05-14T02:20:52.247Z,1005.95
2018-05-14T02:21:52.259Z,1005.96
2018-05-14T02:22:52.279Z,1005.98
2018-05-14T02:23:52.298Z,1005.99
2018-05-14T02:24:52.314Z,1005.97
2018-05-14T02:25:52.330Z,1005.95
2018-05-14T02:26:52.350Z,1005.94
2018-05-14T02:27:52.362Z,1005.98
2018-05-14T02:28:52.386Z,1005.94
2018-05-14T02:29:52.406Z,1005.92
2018-05-14T02:30:52.411Z,1005.93
2018-05-14T02:31:52.430Z,1005.93
2018-05-14T02:32:52.444Z,1005.96
2018-05-14T02:33:52.461Z,1005.96
2018-05-14T02:34:52.477Z,1005.94
2018-05-14T02:35:52.494Z,1005.91
2018-05-14T02:36:52.513Z,1005.91
2018-05-14T02:37:52.529Z,1005.93
2018-05-14T02:38:52.547Z,1005.92
2018-05-14T02:39:52.563Z,1005.91
2018-05-14T02:40:52.586Z,1005.90
2018-05-14T02:41:52.593Z,1005.89
2018-05-14T02:42:52.614Z,1005.89
2018-05-14T02:43:52.627Z,1005.89
2018-05-14T02:44:52.647Z,1005.91
2018-05-14T02:45:52.664Z,1005.90
2018-05-14T02:46:52.677Z,1005.87
2018-05-14T02:47:52.694Z,1005.87
2018-05-14T02:48:52.731Z,1005.86
2018-05-14T02:49:52.731Z,1005.87
2018-05-14T02:50:52.743Z,1005.88
2018-05-14T02:51:52.758Z,1005.88
2018-05-14T02:52:52.779Z,1005.90
2018-05-14T02:53:52.793Z,1005.92
2018-05-14T02:54:52.809Z,1005.92
2018-05-14T02:55:52.827Z,1005.92
2018-05-14T02:56:52.845Z,1005.90
2018-05-14T02:57:52.860Z,1005.91
2018-05-14T02:58:52.876Z,1005.89
2018-05-14T02:59:52.897Z,1005.91
2018-05-14T03:00:52.910Z,1005.88
2018-05-14T03:01:52.925Z,1005.90
2018-05-14T03:02:52.944Z,1005.91
2018-05-14T03:03:52.964Z,1005.90
2018-05-14T03:04:52.991Z,1005.90
2018-05-14T03:05:52.993Z,1005.89
2018-05-14T03:06:53.009Z,1005.90
2018-05-14T03:07:53.026Z,1005.91
2018-05-14T03:08:53.044Z,1005.85
2018-05-14T03:09:53.060Z,1005.85
2018-05-14T03:10:53.076Z,1005.85
2018-05-14T03:11:53.094Z,1005.80
2018-05-14T03:12:53.110Z,1005.86
2018-05-14T03:13:53.129Z,1005.82
2018-05-14T03:14:53.140Z,1005.84
2018-05-14T03:15:53.159Z,1005.82
2018-05-14T03:16:53.179Z,1005.78
2018-05-14T03:17:53.191Z,1005.78
2018-05-14T03:18:53.212Z,1005.81
2018-05-14T03:19:53.226Z,1005.83
2018-05-14T03:20:53.239Z,1005.83
2018-05-14T03:21:53.255Z,1005.82
2018-05-14T03:22:53.277Z,1005.82
2018-05-14T03:23:53.290Z,1005.80
2018-05-14T03:24:53.642Z,1005.81
2018-05-14T03:25:53.328Z,1005.76
2018-05-14T03:26:53.341Z,1005.80
2018-05-14T03:27:53.376Z,1005.82
2018-05-14T03:28:53.377Z,1005.84
2018-05-14T03:29:53.391Z,1005.83
2018-05-14T03:30:53.409Z,1005.82
2018-05-14T03:31:53.427Z,1005.82
2018-05-14T03:32:53.445Z,1005.84
2018-05-14T03:33:53.457Z,1005.85
2018-05-14T03:34:53.472Z,1005.86
2018-05-14T03:35:53.492Z,1005.85
2018-05-14T03:36:53.517Z,1005.82
2018-05-14T03:37:53.523Z,1005.83
2018-05-14T03:38:53.540Z,1005.87
2018-05-14T03:39:53.555Z,1005.87
2018-05-14T03:40:53.574Z,1005.90
2018-05-14T03:41:53.606Z,1005.88
2018-05-14T03:42:53.610Z,1005.88
2018-05-14T03:43:53.621Z,1005.86
2018-05-14T03:44:53.641Z,1005.84
2018-05-14T03:45:53.660Z,1005.82
2018-05-14T03:46:53.672Z,1005.88
2018-05-14T03:47:53.696Z,1005.85
2018-05-14T03:48:53.709Z,1005.81
2018-05-14T03:49:53.731Z,1005.83
2018-05-14T03:50:53.737Z,1005.85
2018-05-14T03:51:53.756Z,1005.90
2018-05-14T03:52:53.771Z,1005.91
2018-05-14T03:53:53.785Z,1005.93
2018-05-14T03:54:53.812Z,1005.89
2018-05-14T03:55:53.820Z,1005.96
2018-05-14T03:56:53.862Z,1005.96
2018-05-14T03:57:53.890Z,1005.97
2018-05-14T03:58:53.896Z,1005.99
2018-05-14T03:59:53.895Z,1006.01
2018-05-14T04:00:53.904Z,1006.04
2018-05-14T04:01:53.922Z,1006.07
2018-05-14T04:02:53.937Z,1006.06
2018-05-14T04:03:53.954Z,1006.09
2018-05-14T04:04:53.969Z,1006.07
2018-05-14T04:05:54.085Z,1006.05
2018-05-14T04:06:54.006Z,1006.08
2018-05-14T04:07:54.021Z,1006.08
2018-05-14T04:08:54.035Z,1006.06
2018-05-14T04:09:54.056Z,1006.07
2018-05-14T04:10:54.073Z,1006.09
2018-05-14T04:11:54.089Z,1006.07
2018-05-14T04:12:54.102Z,1006.09
2018-05-14T04:13:54.209Z,1006.07
2018-05-14T04:14:54.140Z,1006.07
2018-05-14T04:15:54.151Z,1006.06
2018-05-14T04:16:54.167Z,1006.08
2018-05-14T04:17:54.185Z,1006.05
2018-05-14T04:18:54.201Z,1006.06
2018-05-14T04:19:54.221Z,1006.04
2018-05-14T04:20:54.237Z,1006.04
2018-05-14T04:21:54.253Z,1006.06
2018-05-14T04:22:54.267Z,1005.98
2018-05-14T04:23:54.285Z,1006.03
2018-05-14T04:24:54.312Z,1006.04
2018-05-14T04:25:54.317Z,1006.04
2018-05-14T04:26:54.333Z,1006.03
2018-05-14T04:27:54.354Z,1006.07
2018-05-14T04:28:54.367Z,1006.08
2018-05-14T04:29:54.383Z,1006.08
2018-05-14T04:30:54.411Z,1006.12
2018-05-14T04:31:54.421Z,1006.06
2018-05-14T04:32:54.803Z,1006.09
2018-05-14T04:33:54.450Z,1006.11
2018-05-14T04:34:54.473Z,1006.11
2018-05-14T04:35:54.484Z,1006.15
2018-05-14T04:36:54.644Z,1006.15
2018-05-14T04:37:54.515Z,1006.15
2018-05-14T04:38:54.541Z,1006.16
2018-05-14T04:39:54.553Z,1006.20
2018-05-14T04:40:54.567Z,1006.17
2018-05-14T04:41:54.583Z,1006.21
2018-05-14T04:42:54.600Z,1006.18
2018-05-14T04:43:54.621Z,1006.17
2018-05-14T04:44:54.714Z,1006.20
2018-05-14T04:45:54.654Z,1006.21
2018-05-14T04:46:54.672Z,1006.21
2018-05-14T04:48:54.702Z,1006.28
2018-05-14T04:49:54.713Z,1006.25
2018-05-14T04:50:54.730Z,1006.30
2018-05-14T04:51:54.742Z,1006.31
2018-05-14T04:52:54.759Z,1006.28
2018-05-14T04:53:54.775Z,1006.29
2018-05-14T04:54:54.792Z,1006.28
2018-05-14T04:56:54.837Z,1006.26
2018-05-14T04:57:54.847Z,1006.25
2018-05-14T04:58:54.873Z,1006.25
2018-05-14T04:59:54.877Z,1006.27
2018-05-14T05:00:54.895Z,1006.27
2018-05-14T05:01:54.907Z,1006.28
2018-05-14T05:02:54.925Z,1006.29
2018-05-14T05:03:54.953Z,1006.29
2018-05-14T05:04:54.964Z,1006.28
2018-05-14T05:05:55.033Z,1006.29
2018-05-14T05:06:54.994Z,1006.32
2018-05-14T05:07:55.028Z,1006.33
2018-05-14T05:08:55.031Z,1006.34
2018-05-14T05:09:55.045Z,1006.31
2018-05-14T05:10:55.078Z,1006.29
2018-05-14T05:11:55.080Z,1006.29
2018-05-14T05:12:55.092Z,1006.30
2018-05-14T05:13:55.111Z,1006.32
2018-05-14T05:14:55.126Z,1006.34
2018-05-14T05:15:55.142Z,1006.33
2018-05-14T05:16:55.160Z,1006.30
2018-05-14T05:17:55.185Z,1006.33
2018-05-14T05:18:55.192Z,1006.31
2018-05-14T05:19:55.217Z,1006.36
2018-05-14T05:20:55.231Z,1006.36
2018-05-14T05:21:55.248Z,1006.36
2018-05-14T05:22:55.347Z,1006.32
2018-05-14T05:23:55.277Z,1006.31
2018-05-14T05:24:55.292Z,1006.29
2018-05-14T05:25:55.311Z,1006.32
2018-05-14T05:26:55.337Z,1006.33
2018-05-14T05:27:55.341Z,1006.37
2018-05-14T05:28:55.360Z,1006.39
2018-05-14T05:29:55.376Z,1006.31
2018-05-14T05:30:55.393Z,1006.34
2018-05-14T05:31:55.410Z,1006.39
2018-05-14T05:32:55.429Z,1006.43
2018-05-14T05:33:55.444Z,1006.42
2018-05-14T05:34:55.475Z,1006.46
2018-05-14T05:35:55.478Z,1006.43
2018-05-14T05:36:55.499Z,1006.48
2018-05-14T05:37:55.580Z,1006.47
2018-05-14T05:38:55.530Z,1006.48
2018-05-14T05:39:55.550Z,1006.47
2018-05-14T05:41:55.577Z,1006.50
2018-05-14T05:42:55.599Z,1006.51
2018-05-14T05:43:55.609Z,1006.55
2018-05-14T05:44:55.627Z,1006.54
2018-05-14T05:45:55.643Z,1006.51
2018-05-14T05:46:55.661Z,1006.52
2018-05-14T05:47:55.677Z,1006.57
2018-05-14T05:48:55.698Z,1006.59
2018-05-14T05:49:55.711Z,1006.60
2018-05-14T05:50:55.727Z,1006.59
2018-05-14T05:51:55.744Z,1006.55
2018-05-14T05:52:55.763Z,1006.54
2018-05-14T05:53:55.779Z,1006.53
2018-05-14T05:54:55.797Z,1006.53
2018-05-14T05:55:55.812Z,1006.53
2018-05-14T05:56:55.827Z,1006.53
2018-05-14T05:57:55.857Z,1006.54
2018-05-14T05:58:55.880Z,1006.54
2018-05-14T05:59:55.887Z,1006.55
2018-05-14T06:00:55.895Z,1006.56
2018-05-14T06:01:55.910Z,1006.54
2018-05-14T06:02:55.930Z,1006.55
2018-05-14T06:03:55.945Z,1006.57
2018-05-14T06:04:55.962Z,1006.62
2018-05-14T06:05:55.985Z,1006.62
2018-05-14T06:06:55.995Z,1006.63
2018-05-14T06:07:56.012Z,1006.67
2018-05-14T06:08:56.032Z,1006.68
2018-05-14T06:09:56.057Z,1006.65
2018-05-14T06:10:56.066Z,1006.69
2018-05-14T06:11:56.102Z,1006.70
2018-05-14T06:12:56.129Z,1006.67
2018-05-14T06:13:56.111Z,1006.70
2018-05-14T06:14:56.169Z,1006.70
2018-05-14T06:15:56.148Z,1006.67
2018-05-14T06:16:56.166Z,1006.64
2018-05-14T06:17:56.178Z,1006.67
2018-05-14T06:18:56.196Z,1006.68
2018-05-14T06:19:56.212Z,1006.69
2018-05-14T06:20:56.231Z,1006.64
2018-05-14T06:21:56.245Z,1006.63
2018-05-14T06:22:56.274Z,1006.66
2018-05-14T06:23:56.281Z,1006.67
2018-05-14T06:24:56.295Z,1006.70
2018-05-14T06:25:56.315Z,1006.70
2018-05-14T06:26:56.331Z,1006.73
2018-05-14T06:27:56.365Z,1006.68
2018-05-14T06:28:56.367Z,1006.73
2018-05-14T06:29:56.381Z,1006.74
2018-05-14T06:30:56.397Z,1006.71
2018-05-14T06:31:56.502Z,1006.71
2018-05-14T06:32:56.433Z,1006.76
2018-05-14T06:33:56.452Z,1006.74
2018-05-14T06:34:56.474Z,1006.79
2018-05-14T06:35:56.618Z,1006.74
2018-05-14T06:36:56.731Z,1006.74
2018-05-14T06:37:56.706Z,1006.73
2018-05-14T06:38:56.618Z,1006.78
2018-05-14T06:39:56.745Z,1006.76
2018-05-14T06:40:56.634Z,1006.75
2018-05-14T06:41:56.671Z,1006.74
2018-05-14T06:42:56.622Z,1006.76
2018-05-14T06:43:56.617Z,1006.78
2018-05-14T06:44:56.644Z,1006.75
2018-05-14T06:45:56.653Z,1006.78
2018-05-14T06:46:56.678Z,1006.78
2018-05-14T06:47:56.685Z,1006.75
2018-05-14T06:48:56.701Z,1006.78
2018-05-14T06:49:56.816Z,1006.78
2018-05-14T06:50:56.740Z,1006.82
2018-05-14T06:51:56.755Z,1006.82
2018-05-14T06:52:56.770Z,1006.76
2018-05-14T06:53:56.806Z,1006.80
2018-05-14T06:54:56.804Z,1006.77
2018-05-14T06:55:56.820Z,1006.74
2018-05-14T06:56:56.838Z,1006.75
2018-05-14T06:57:56.857Z,1006.76
2018-05-14T06:59:56.909Z,1006.80
2018-05-14T07:00:56.906Z,1006.79
2018-05-14T07:01:56.926Z,1006.75
2018-05-14T07:02:56.946Z,1006.82
2018-05-14T07:03:56.957Z,1006.85
2018-05-14T07:04:56.973Z,1006.85
2018-05-14T07:05:56.995Z,1006.88
2018-05-14T07:06:57.007Z,1006.87
2018-05-14T07:07:57.029Z,1006.87
2018-05-14T07:08:57.083Z,1006.85
2018-05-14T07:09:57.065Z,1006.82
2018-05-14T07:10:57.084Z,1006.85
2018-05-14T07:11:57.834Z,1006.83
2018-05-14T07:12:57.120Z,1006.86
2018-05-14T07:13:57.138Z,1006.86
2018-05-14T07:14:57.171Z,1006.88
2018-05-14T07:15:57.219Z,1006.87
2018-05-14T07:16:57.177Z,1006.91
2018-05-14T07:17:57.195Z,1006.91
2018-05-14T07:18:57.214Z,1006.92
2018-05-14T07:19:57.296Z,1006.89
2018-05-14T07:20:57.252Z,1006.90
2018-05-14T07:21:57.262Z,1006.94
2018-05-14T07:22:57.277Z,1006.91
2018-05-14T07:23:57.315Z,1006.89
2018-05-14T07:24:57.320Z,1006.93
2018-05-14T07:26:57.369Z,1006.99
2018-05-14T07:27:57.372Z,1006.97
2018-05-14T07:28:57.382Z,1006.95
2018-05-14T07:29:57.402Z,1006.94
2018-05-14T07:30:57.415Z,1006.96
2018-05-14T07:31:57.430Z,1006.99
2018-05-14T07:32:57.455Z,1006.99
2018-05-14T07:33:57.507Z,1007.01
2018-05-14T07:34:57.507Z,1006.99
2018-05-14T07:35:57.510Z,1007.03
2018-05-14T07:36:57.627Z,1007.00
2018-05-14T07:37:57.567Z,1007.02
2018-05-14T07:38:57.564Z,1007.04
2018-05-14T07:39:59.193Z,1007.06
2018-05-14T07:40:57.591Z,1007.04
2018-05-14T07:41:57.609Z,1007.07
2018-05-14T07:42:57.619Z,1007.08
2018-05-14T07:43:58.021Z,1007.12
2018-05-14T07:44:57.659Z,1007.14
2018-05-14T07:45:57.774Z,1007.15
2018-05-14T07:46:57.695Z,1007.15
2018-05-14T07:47:57.706Z,1007.14
2018-05-14T07:48:57.732Z,1007.15
2018-05-14T07:49:58.060Z,1007.14
2018-05-14T07:50:57.929Z,1007.13
2018-05-14T07:51:57.775Z,1007.12
2018-05-14T07:52:57.942Z,1007.13
2018-05-14T07:53:57.826Z,1007.11
2018-05-14T07:54:57.847Z,1007.12
2018-05-14T07:55:57.854Z,1007.11
2018-05-14T07:56:57.869Z,1007.11
2018-05-14T07:57:58.307Z,1007.12
2018-05-14T07:58:57.912Z,1007.14
2018-05-14T07:59:58.637Z,1007.16
2018-05-14T08:00:57.973Z,1007.16
2018-05-14T08:01:57.956Z,1007.16
2018-05-14T08:02:57.970Z,1007.12
2018-05-14T08:03:58.003Z,1007.14
2018-05-14T08:04:58.000Z,1007.15
2018-05-14T08:05:58.019Z,1007.15
2018-05-14T08:06:58.042Z,1007.12
2018-05-14T08:07:58.051Z,1007.10
2018-05-14T08:08:58.111Z,1007.12
2018-05-14T08:09:59.523Z,1007.13
2018-05-14T08:10:58.566Z,1007.15
2018-05-14T08:11:59.375Z,1007.12
2018-05-14T08:12:59.010Z,1007.15
2018-05-14T08:13:58.836Z,1007.21
2018-05-14T08:14:58.479Z,1007.20
2018-05-14T08:15:58.930Z,1007.17
2018-05-14T08:16:58.382Z,1007.18
2018-05-14T08:18:01.845Z,1007.23
2018-05-14T08:18:58.527Z,1007.18
2018-05-14T08:19:58.967Z,1007.21
2018-05-14T08:20:58.288Z,1007.20
2018-05-14T08:21:58.495Z,1007.24
2018-05-14T08:23:02.459Z,1007.21
2018-05-14T08:23:58.702Z,1007.17
2018-05-14T08:25:02.450Z,1007.17
2018-05-14T08:26:01.585Z,1007.18
2018-05-14T08:26:58.573Z,1007.17
2018-05-14T08:27:59.627Z,1007.14
2018-05-14T08:28:58.841Z,1007.18
2018-05-14T08:29:58.741Z,1007.18
2018-05-14T08:31:58.617Z,1007.16
2018-05-14T08:32:58.677Z,1007.17
2018-05-14T08:34:00.343Z,1007.19
2018-05-14T08:35:02.950Z,1007.16
2018-05-14T08:36:03.086Z,1007.14
2018-05-14T08:36:59.139Z,1007.16
2018-05-14T08:37:59.179Z,1007.19
2018-05-14T08:39:02.301Z,1007.19
2018-05-14T08:39:59.549Z,1007.19
2018-05-14T08:41:03.288Z,1007.26
2018-05-14T08:42:03.327Z,1007.23
2018-05-14T08:42:58.793Z,1007.25
2018-05-14T08:44:00.932Z,1007.24
2018-05-14T08:44:59.473Z,1007.24
2018-05-14T08:45:58.918Z,1007.26
2018-05-14T08:47:00.718Z,1007.25
2018-05-14T08:47:58.944Z,1007.26
2018-05-14T08:48:58.971Z,1007.28
2018-05-14T08:50:01.596Z,1007.26
2018-05-14T08:51:58.985Z,1007.30
2018-05-14T08:53:02.937Z,1007.26
2018-05-14T08:53:59.054Z,1007.25
2018-05-14T08:54:59.743Z,1007.24
2018-05-14T08:55:59.988Z,1007.29
2018-05-14T08:58:01.822Z,1007.34
2018-05-14T08:58:59.376Z,1007.29
2018-05-14T09:00:00.174Z,1007.35
2018-05-14T09:01:01.301Z,1007.30
2018-05-14T09:02:03.086Z,1007.34
2018-05-14T09:02:59.924Z,1007.34
2018-05-14T09:04:03.061Z,1007.33
2018-05-14T09:05:01.019Z,1007.31
2018-05-14T09:05:59.293Z,1007.31
2018-05-14T09:07:02.298Z,1007.31
2018-05-14T09:07:59.306Z,1007.33
2018-05-14T09:08:59.860Z,1007.28
2018-05-14T09:10:01.350Z,1007.32
2018-05-14T09:10:59.286Z,1007.27
2018-05-14T09:11:59.799Z,1007.27
2018-05-14T09:13:03.642Z,1007.25
2018-05-14T09:13:59.369Z,1007.28
2018-05-14T09:14:59.331Z,1007.24
2018-05-14T09:16:59.382Z,1007.29
2018-05-14T09:17:59.497Z,1007.28
2018-05-14T09:18:59.601Z,1007.27
2018-05-14T09:19:59.335Z,1007.28
2018-05-14T09:21:00.008Z,1007.24
2018-05-14T09:22:03.635Z,1007.30
2018-05-14T09:22:59.979Z,1007.29
2018-05-14T09:23:59.572Z,1007.31
2018-05-14T09:24:59.665Z,1007.27
2018-05-14T09:26:00.111Z,1007.31
2018-05-14T09:27:00.106Z,1007.30
2018-05-14T09:28:01.071Z,1007.34
2018-05-14T09:29:00.163Z,1007.34
2018-05-14T09:29:59.764Z,1007.28
2018-05-14T09:30:59.856Z,1007.30
2018-05-14T09:32:01.805Z,1007.28
2018-05-14T09:33:00.569Z,1007.29
2018-05-14T09:34:02.728Z,1007.34
2018-05-14T09:35:02.154Z,1007.25
2018-05-14T09:35:59.682Z,1007.27
2018-05-14T09:36:59.643Z,1007.30
2018-05-14T09:37:59.654Z,1007.30
2018-05-14T09:38:59.671Z,1007.30
2018-05-14T09:39:59.695Z,1007.32
2018-05-14T09:40:59.717Z,1007.34
2018-05-14T09:41:59.753Z,1007.32
2018-05-14T09:42:59.797Z,1007.30
2018-05-14T09:43:59.761Z,1007.29
2018-05-14T09:44:59.786Z,1007.32
2018-05-14T09:45:59.799Z,1007.33
2018-05-14T09:46:59.820Z,1007.30
2018-05-14T09:47:59.837Z,1007.26
2018-05-14T09:48:59.856Z,1007.32
2018-05-14T09:49:59.881Z,1007.30
2018-05-14T09:50:59.893Z,1007.25
2018-05-14T09:51:59.913Z,1007.29
2018-05-14T09:52:59.947Z,1007.26
2018-05-14T09:53:59.949Z,1007.30
2018-05-14T09:54:59.978Z,1007.28
2018-05-14T09:55:59.988Z,1007.30
2018-05-14T09:57:00.005Z,1007.34
2018-05-14T09:58:00.026Z,1007.27
2018-05-14T09:59:00.038Z,1007.30
2018-05-14T10:00:00.128Z,1007.31
2018-05-14T10:01:00.094Z,1007.30
2018-05-14T10:02:00.223Z,1007.29
2018-05-14T10:03:00.114Z,1007.30
2018-05-14T10:04:00.150Z,1007.33
2018-05-14T10:05:00.154Z,1007.27
2018-05-14T10:06:00.213Z,1007.28
2018-05-14T10:07:00.189Z,1007.31
2018-05-14T10:08:00.425Z,1007.32
2018-05-14T10:09:00.226Z,1007.30
2018-05-14T10:10:00.356Z,1007.29
2018-05-14T10:11:00.267Z,1007.27
2018-05-14T10:12:00.283Z,1007.25
2018-05-14T10:13:00.345Z,1007.26
2018-05-14T10:14:00.322Z,1007.25
2018-05-14T10:15:00.346Z,1007.25
2018-05-14T10:16:00.362Z,1007.22
2018-05-14T10:17:00.475Z,1007.23
2018-05-14T10:18:00.419Z,1007.22
2018-05-14T10:19:00.426Z,1007.22
2018-05-14T10:20:00.438Z,1007.23
2018-05-14T10:21:00.457Z,1007.25
2018-05-14T10:22:00.710Z,1007.24
2018-05-14T10:23:00.663Z,1007.18
2018-05-14T10:24:00.525Z,1007.21
2018-05-14T10:25:00.544Z,1007.25
2018-05-14T10:26:00.548Z,1007.28
2018-05-14T10:27:00.568Z,1007.31
2018-05-14T10:28:00.595Z,1007.27
2018-05-14T10:29:00.609Z,1007.24
2018-05-14T10:30:00.627Z,1007.23
2018-05-14T10:31:00.737Z,1007.26
2018-05-14T10:32:00.759Z,1007.25
2018-05-14T10:33:00.684Z,1007.20
2018-05-14T10:34:00.709Z,1007.22
2018-05-14T10:35:00.746Z,1007.28
2018-05-14T10:36:00.744Z,1007.28
2018-05-14T10:37:00.762Z,1007.24
2018-05-14T10:38:00.785Z,1007.28
2018-05-14T10:39:00.805Z,1007.32
2018-05-14T10:40:00.827Z,1007.34
2018-05-14T10:41:00.868Z,1007.35
2018-05-14T10:42:00.861Z,1007.29
2018-05-14T10:43:00.883Z,1007.31
2018-05-14T10:44:00.896Z,1007.30
2018-05-14T10:45:00.937Z,1007.34
2018-05-14T10:46:00.940Z,1007.30
2018-05-14T10:47:00.959Z,1007.30
2018-05-14T10:48:00.981Z,1007.30
2018-05-14T10:49:00.997Z,1007.31
2018-05-14T10:50:01.012Z,1007.35
2018-05-14T10:51:01.075Z,1007.37
2018-05-14T10:52:01.052Z,1007.34
2018-05-14T10:53:01.074Z,1007.34
2018-05-14T10:54:01.092Z,1007.35
2018-05-14T10:55:01.107Z,1007.38
2018-05-14T10:56:01.153Z,1007.40
2018-05-14T10:57:01.150Z,1007.40
2018-05-14T10:58:01.948Z,1007.40
2018-05-14T10:59:01.191Z,1007.41
2018-05-14T11:00:01.221Z,1007.43
2018-05-14T11:01:01.279Z,1007.43
2018-05-14T11:02:01.261Z,1007.40
2018-05-14T11:03:01.265Z,1007.40
2018-05-14T11:04:01.371Z,1007.38
2018-05-14T11:05:01.304Z,1007.36
2018-05-14T11:06:01.340Z,1007.38
2018-05-14T11:07:01.345Z,1007.37
2018-05-14T11:08:01.382Z,1007.34
2018-05-14T11:09:01.385Z,1007.38
2018-05-14T11:10:05.123Z,1007.41
2018-05-14T11:11:01.422Z,1007.38
2018-05-14T11:12:02.115Z,1007.42
2018-05-14T11:13:01.467Z,1007.43
2018-05-14T11:14:01.693Z,1007.44
2018-05-14T11:15:01.503Z,1007.46
2018-05-14T11:16:01.624Z,1007.29
2018-05-14T11:17:01.899Z,1007.31
2018-05-14T11:18:01.576Z,1007.37
2018-05-14T11:19:01.584Z,1007.31
2018-05-14T11:20:01.604Z,1007.37
2018-05-14T11:21:01.622Z,1007.35
2018-05-14T11:22:01.647Z,1007.37
2018-05-14T11:23:01.892Z,1007.34
2018-05-14T11:24:01.717Z,1007.38
2018-05-14T11:25:05.510Z,1007.42
2018-05-14T11:26:04.804Z,1007.37
2018-05-14T11:27:06.037Z,1007.43
2018-05-14T11:28:02.828Z,1007.35
2018-05-14T11:29:01.785Z,1007.36
2018-05-14T11:30:01.801Z,1007.34
2018-05-14T11:31:01.825Z,1007.41
2018-05-14T11:32:02.687Z,1007.45
2018-05-14T11:33:01.865Z,1007.42
2018-05-14T11:34:02.082Z,1007.45
2018-05-14T11:35:01.912Z,1007.47
2018-05-14T11:36:01.932Z,1007.40
2018-05-14T11:37:01.943Z,1007.40
2018-05-14T11:38:02.206Z,1007.38
2018-05-14T11:39:01.984Z,1007.42
2018-05-14T11:40:03.449Z,1007.39
2018-05-14T11:41:02.337Z,1007.38
2018-05-14T11:43:02.533Z,1007.44
2018-05-14T11:44:02.097Z,1007.40
2018-05-14T11:45:02.107Z,1007.43
2018-05-14T11:46:02.141Z,1007.35
2018-05-14T11:47:02.337Z,1007.37
2018-05-14T11:48:02.166Z,1007.41
2018-05-14T11:49:02.260Z,1007.43
2018-05-14T11:50:02.210Z,1007.47
2018-05-14T11:51:02.226Z,1007.43
2018-05-14T11:52:02.248Z,1007.45
2018-05-14T11:53:02.266Z,1007.45
2018-05-14T11:54:02.295Z,1007.48
2018-05-14T11:55:02.308Z,1007.45
2018-05-14T11:56:02.339Z,1007.43
2018-05-14T11:57:02.355Z,1007.45
2018-05-14T11:58:02.370Z,1007.41
2018-05-14T11:59:02.400Z,1007.46
2018-05-14T12:00:02.411Z,1007.46
2018-05-14T12:01:02.437Z,1007.43
2018-05-14T12:02:02.454Z,1007.43
2018-05-14T12:03:02.535Z,1007.38
2018-05-14T12:04:02.493Z,1007.39
2018-05-14T12:05:02.521Z,1007.38
2018-05-14T12:06:02.540Z,1007.41
2018-05-14T12:07:02.557Z,1007.44
2018-05-14T12:08:02.576Z,1007.40
2018-05-14T12:09:02.598Z,1007.41
2018-05-14T12:10:02.629Z,1007.40
2018-05-14T12:11:02.648Z,1007.38
2018-05-14T12:12:02.664Z,1007.39
2018-05-14T12:13:02.683Z,1007.44
2018-05-14T12:14:02.701Z,1007.38
2018-05-14T12:15:02.726Z,1007.40
2018-05-14T12:16:02.800Z,1007.36